Time;durP1;ratioP1;P1;durP2;ratioP2;P2;SDS_P1;SDS_P2;PMS_P1;PMS_P2;Temp;Humidity;BMP_temperature;BMP_pressure;BME280_temperature;BME280_humidity;BME280_pressure;Samples;Min_cycle;Max_cycle;Signal;HPM_P1;HPM_P2
2022/01/03 00:01:11;;;;;;;4.30;3.90;;;5.10;99.90;;;;;;4997703;28;20250;-89
2022/01/03 00:03:38;;;;;;;4.40;4.10;;;5.00;99.90;;;;;;5001416;28;20221;-88
2022/01/03 00:06:06;;;;;;;4.20;3.90;;;5.00;99.90;;;;;;4997302;28;20204;-88
2022/01/03 00:08:33;;;;;;;4.63;3.78;;;5.00;99.90;;;;;;4993338;28;20204;-86
2022/01/03 00:11:01;;;;;;;4.22;3.92;;;5.00;99.90;;;;;;4991544;28;20235;-87
2022/01/03 00:13:28;;;;;;;3.72;3.42;;;5.00;99.90;;;;;;4991305;28;20264;-83
2022/01/03 00:15:56;;;;;;;4.25;3.63;;;5.00;99.90;;;;;;4993372;28;20667;-87
2022/01/03 00:18:25;;;;;;;3.97;3.67;;;4.90;99.90;;;;;;4996623;28;20292;-85
2022/01/03 00:20:58;;;;;;;3.33;3.13;;;5.00;99.90;;;;;;4995623;28;20228;-89
2022/01/03 00:23:27;;;;;;;3.50;3.30;;;4.90;99.90;;;;;;4989047;28;20205;-87
2022/01/03 00:26:00;;;;;;;3.72;3.50;;;5.00;99.90;;;;;;4991986;28;20224;-89
2022/01/03 00:28:34;;;;;;;3.67;3.38;;;5.00;99.90;;;;;;4989551;28;20282;-89
2022/01/03 00:31:02;;;;;;;3.88;3.58;;;5.00;99.90;;;;;;4989735;28;20919;-87
2022/01/03 00:33:31;;;;;;;3.72;3.53;;;5.00;99.90;;;;;;4991271;28;20204;-88
2022/01/03 00:35:59;;;;;;;3.65;3.35;;;4.90;99.90;;;;;;4991323;28;20710;-86
2022/01/03 00:38:28;;;;;;;4.28;3.88;;;4.90;99.90;;;;;;4995834;28;20201;-89
2022/01/03 00:40:56;;;;;;;3.63;3.33;;;4.90;99.90;;;;;;4996500;28;20236;-89
2022/01/03 00:43:25;;;;;;;4.32;3.92;;;4.90;99.90;;;;;;5004770;28;20539;-88
2022/01/03 00:45:53;;;;;;;3.42;3.15;;;4.80;99.90;;;;;;5000068;28;20594;-85
2022/01/03 00:48:20;;;;;;;4.03;3.70;;;4.80;99.90;;;;;;4994759;28;20252;-88
2022/01/03 00:50:49;;;;;;;3.38;3.17;;;4.80;99.90;;;;;;4991800;28;20651;-89
2022/01/03 00:53:16;;;;;;;3.72;3.42;;;4.80;99.90;;;;;;4992458;28;20197;-92
2022/01/03 00:56:03;;;;;;;3.45;3.15;;;4.80;99.90;;;;;;4990194;28;20217;-88
2022/01/03 00:58:36;;;;;;;3.97;3.67;;;4.80;99.90;;;;;;4994427;28;20201;-86
2022/01/03 01:01:04;;;;;;;3.58;3.38;;;4.80;99.90;;;;;;4993081;28;20304;-85
2022/01/03 01:03:36;;;;;;;3.28;3.08;;;4.80;99.90;;;;;;4992640;28;20208;-87
2022/01/03 01:06:06;;;;;;;3.67;3.40;;;4.80;99.90;;;;;;4994969;28;20650;-88
2022/01/03 01:08:35;;;;;;;3.47;3.28;;;4.80;99.90;;;;;;4992863;28;20204;-88
2022/01/03 01:11:04;;;;;;;3.15;2.92;;;4.80;99.90;;;;;;4990147;28;20272;-87
2022/01/03 01:13:32;;;;;;;3.65;3.35;;;4.80;99.90;;;;;;4989905;28;20205;-88
2022/01/03 01:15:59;;;;;;;3.42;3.22;;;4.80;99.90;;;;;;4994577;28;20208;-92
2022/01/03 01:18:31;;;;;;;3.20;3.00;;;4.90;99.90;;;;;;4977953;28;20208;-91
2022/01/03 01:20:58;;;;;;;3.20;3.00;;;4.90;99.90;;;;;;5002797;28;20602;-90
2022/01/03 01:23:27;;;;;;;3.47;3.28;;;4.80;99.90;;;;;;4997350;28;20208;-90
2022/01/03 01:28:38;;;;;;;3.53;3.22;;;4.80;99.90;;;;;;4999064;28;20318;-92
2022/01/03 01:31:06;;;;;;;4.03;3.75;;;4.80;99.90;;;;;;5001017;28;20208;-90
2022/01/03 01:33:35;;;;;;;3.60;3.30;;;4.80;99.90;;;;;;4999667;28;20209;-92
2022/01/03 01:36:05;;;;;;;4.75;4.35;;;4.80;99.90;;;;;;4999167;28;20216;-91
2022/01/03 01:38:36;;;;;;;4.63;4.30;;;4.70;99.90;;;;;;4992602;28;20256;-90
2022/01/03 01:41:06;;;;;;;4.18;3.85;;;4.60;99.90;;;;;;4994176;28;20287;-91
2022/01/03 01:43:37;;;;;;;3.85;3.55;;;4.50;99.90;;;;;;4992490;28;20209;-91
2022/01/03 01:46:08;;;;;;;4.25;3.85;;;4.50;99.90;;;;;;5004187;28;20212;-90
2022/01/03 01:48:37;;;;;;;4.80;4.40;;;4.40;99.90;;;;;;5002413;28;20192;-92
2022/01/03 01:51:06;;;;;;;4.50;4.20;;;4.40;99.90;;;;;;5000307;28;20304;-89
2022/01/03 01:53:42;;;;;;;4.00;3.70;;;4.40;99.90;;;;;;4997866;28;20207;-91
2022/01/03 01:56:16;;;;;;;3.97;3.67;;;4.40;99.90;;;;;;4993000;28;20316;-91
2022/01/03 01:59:00;;;;;;;4.45;3.92;;;4.40;99.90;;;;;;4996766;28;20254;-91
2022/01/03 02:01:41;;;;;;;4.10;3.90;;;4.40;99.90;;;;;;4999903;28;20228;-91
2022/01/03 02:04:20;;;;;;;4.35;3.97;;;4.40;99.90;;;;;;4992950;28;20209;-91
2022/01/03 02:06:48;;;;;;;3.90;3.70;;;4.40;99.90;;;;;;5005328;28;20193;-90
2022/01/03 02:09:22;;;;;;;3.90;3.60;;;4.30;99.90;;;;;;5004793;28;20212;-90
2022/01/03 02:11:51;;;;;;;3.90;3.65;;;4.30;99.90;;;;;;4999146;28;20208;-90
2022/01/03 02:14:19;;;;;;;4.35;4.05;;;4.20;99.90;;;;;;4990202;28;20208;-91
2022/01/03 02:16:46;;;;;;;4.80;4.40;;;4.20;99.90;;;;;;5001245;28;20205;-91
2022/01/03 02:19:13;;;;;;;4.25;3.90;;;4.10;99.90;;;;;;4995028;28;20713;-91
2022/01/03 02:21:42;;;;;;;3.80;3.50;;;4.10;99.90;;;;;;5003543;28;20556;-91
2022/01/03 02:24:10;;;;;;;4.45;4.15;;;4.00;99.90;;;;;;4987349;28;20197;-91
2022/01/03 02:26:37;;;;;;;4.30;4.00;;;4.00;99.90;;;;;;4998633;28;20208;-93
2022/01/03 02:29:05;;;;;;;3.80;3.50;;;4.10;99.90;;;;;;4997851;28;20208;-91
2022/01/03 02:31:32;;;;;;;4.00;3.70;;;4.20;99.90;;;;;;4993545;28;20757;-90
2022/01/03 02:34:01;;;;;;;4.32;4.03;;;4.30;99.90;;;;;;4998576;28;20271;-91
2022/01/03 02:36:31;;;;;;;3.55;3.35;;;4.30;99.90;;;;;;4992353;28;20244;-91
2022/01/03 02:39:00;;;;;;;4.25;3.95;;;4.20;99.90;;;;;;4994330;28;20227;-91
2022/01/03 02:41:27;;;;;;;4.10;3.80;;;4.10;99.90;;;;;;4994282;28;20228;-91
2022/01/03 02:43:54;;;;;;;3.67;3.38;;;4.10;99.90;;;;;;4999303;28;20200;-91
2022/01/03 02:46:22;;;;;;;3.88;3.58;;;4.10;99.90;;;;;;5000155;28;20232;-91
2022/01/03 02:48:51;;;;;;;4.32;3.97;;;4.10;99.90;;;;;;4996353;28;20949;-90
2022/01/03 02:51:19;;;;;;;3.88;3.58;;;4.10;99.90;;;;;;5001029;28;20703;-91
2022/01/03 02:53:46;;;;;;;3.97;3.67;;;4.10;99.90;;;;;;4992742;28;20201;-91
2022/01/03 02:56:15;;;;;;;4.07;3.78;;;4.10;99.90;;;;;;4991686;28;20220;-91
2022/01/03 02:58:42;;;;;;;4.05;3.75;;;4.10;99.90;;;;;;4991891;28;20197;-90
2022/01/03 03:01:09;;;;;;;4.13;3.83;;;4.10;99.90;;;;;;4992825;28;20225;-90
2022/01/03 03:03:36;;;;;;;4.55;4.20;;;4.10;99.90;;;;;;4992947;28;20271;-91
2022/01/03 03:06:03;;;;;;;4.10;3.80;;;4.00;99.90;;;;;;4991563;28;20228;-91
2022/01/03 03:08:30;;;;;;;4.10;3.80;;;3.90;99.90;;;;;;5002838;28;20200;-91
2022/01/03 03:10:57;;;;;;;4.15;3.85;;;3.90;99.90;;;;;;4990165;28;20224;-91
2022/01/03 03:13:26;;;;;;;4.03;3.72;;;3.90;99.90;;;;;;4991495;28;20197;-92
2022/01/03 03:15:53;;;;;;;4.40;4.10;;;3.90;99.90;;;;;;4991797;28;20304;-91
2022/01/03 03:18:21;;;;;;;4.38;4.07;;;3.90;99.90;;;;;;4998853;28;20211;-89
2022/01/03 03:20:49;;;;;;;4.40;4.10;;;3.80;99.90;;;;;;4991872;28;20786;-90
2022/01/03 03:23:17;;;;;;;4.25;3.95;;;3.70;99.90;;;;;;4993899;28;20673;-91
2022/01/03 03:25:44;;;;;;;4.78;4.47;;;3.70;99.90;;;;;;4993673;28;20271;-90
2022/01/03 03:28:14;;;;;;;4.38;4.07;;;3.70;99.90;;;;;;4988317;28;20259;-90
2022/01/03 03:30:46;;;;;;;4.35;4.05;;;3.70;99.90;;;;;;5002006;28;20224;-90
2022/01/03 03:33:16;;;;;;;3.75;3.45;;;3.80;99.90;;;;;;4991198;28;20223;-92
2022/01/03 03:35:44;;;;;;;4.30;4.00;;;3.70;99.90;;;;;;5017075;28;20223;-89
2022/01/03 03:38:11;;;;;;;5.00;4.50;;;3.80;99.90;;;;;;4995272;28;20197;-92
2022/01/03 03:40:39;;;;;;;5.03;4.63;;;3.80;99.90;;;;;;4994227;28;20224;-91
2022/01/03 03:43:06;;;;;;;4.55;4.25;;;3.70;99.90;;;;;;4995511;28;20232;-90
2022/01/03 03:45:34;;;;;;;4.38;4.07;;;3.70;99.90;;;;;;4989701;28;20228;-91
2022/01/03 03:48:02;;;;;;;4.85;4.45;;;3.60;99.90;;;;;;4993873;28;20197;-90
2022/01/03 03:50:29;;;;;;;4.43;4.10;;;3.60;99.90;;;;;;4993554;28;20221;-89
2022/01/03 03:52:57;;;;;;;4.43;4.13;;;3.50;99.90;;;;;;4991129;28;20207;-90
2022/01/03 03:55:24;;;;;;;4.07;3.78;;;3.50;99.90;;;;;;4992031;28;20224;-90
2022/01/03 03:57:51;;;;;;;4.45;3.92;;;3.50;99.90;;;;;;4989522;28;20286;-90
2022/01/03 04:00:20;;;;;;;4.22;3.92;;;3.50;99.90;;;;;;4987541;28;20225;-90
2022/01/03 04:02:47;;;;;;;4.35;4.05;;;3.50;99.90;;;;;;4995200;28;20205;-91
2022/01/03 04:05:16;;;;;;;4.40;4.10;;;3.50;99.90;;;;;;4993007;28;20220;-92
2022/01/03 04:07:43;;;;;;;4.57;4.28;;;3.50;99.90;;;;;;4999591;28;20263;-91
2022/01/03 04:10:15;;;;;;;4.38;4.00;;;3.50;99.90;;;;;;4990908;28;20221;-91
2022/01/03 04:12:43;;;;;;;4.68;4.38;;;3.50;99.90;;;;;;5003205;28;20193;-91
2022/01/03 04:15:11;;;;;;;4.63;4.32;;;3.40;99.90;;;;;;4977999;28;20267;-91
2022/01/03 04:17:38;;;;;;;4.45;4.00;;;3.40;99.90;;;;;;5006164;28;20184;-89
2022/01/03 04:20:07;;;;;;;3.92;3.63;;;3.40;99.90;;;;;;5009061;28;20302;-91
2022/01/03 04:22:36;;;;;;;3.92;3.63;;;3.40;99.90;;;;;;4994396;28;20229;-91
2022/01/03 04:25:04;;;;;;;4.15;3.85;;;3.40;99.90;;;;;;4992223;28;20545;-90
2022/01/03 04:27:32;;;;;;;4.35;3.95;;;3.30;99.90;;;;;;4992474;28;20753;-91
2022/01/03 04:29:59;;;;;;;4.53;4.20;;;3.30;99.90;;;;;;4983255;28;20694;-91
2022/01/03 04:32:26;;;;;;;4.57;4.18;;;3.30;99.90;;;;;;4993925;28;20644;-91
2022/01/03 04:34:53;;;;;;;4.20;3.90;;;3.30;99.90;;;;;;4998331;28;20221;-91
2022/01/03 04:37:20;;;;;;;4.60;4.30;;;3.30;99.90;;;;;;4997624;28;20204;-91
2022/01/03 04:39:48;;;;;;;4.72;4.32;;;3.30;99.90;;;;;;4996216;28;20232;-90
2022/01/03 04:42:16;;;;;;;5.28;4.78;;;3.30;99.90;;;;;;4994755;28;20220;-92
2022/01/03 04:44:43;;;;;;;3.88;3.58;;;3.20;99.90;;;;;;4999430;28;20227;-91
2022/01/03 04:47:10;;;;;;;4.60;4.20;;;3.20;99.90;;;;;;4998062;28;20204;-91
2022/01/03 04:49:38;;;;;;;5.18;4.70;;;3.10;99.90;;;;;;4995989;28;20236;-89
2022/01/03 04:52:05;;;;;;;5.53;5.13;;;3.00;99.90;;;;;;5001326;28;20211;-91
2022/01/03 04:54:32;;;;;;;4.50;4.20;;;2.90;99.90;;;;;;4994571;28;20267;-91
2022/01/03 04:57:01;;;;;;;4.38;4.07;;;2.90;99.90;;;;;;4995573;28;20250;-92
2022/01/03 04:59:28;;;;;;;5.40;5.00;;;2.90;99.90;;;;;;4994922;28;20201;-91
2022/01/03 05:01:55;;;;;;;4.35;4.05;;;2.90;99.90;;;;;;5014297;28;20207;-89
2022/01/03 05:04:22;;;;;;;5.68;4.68;;;3.00;99.90;;;;;;5009407;28;20201;-91
2022/01/03 05:06:49;;;;;;;5.40;4.93;;;3.00;99.90;;;;;;4999461;28;20224;-91
2022/01/03 05:09:16;;;;;;;4.43;4.10;;;3.00;99.90;;;;;;4997562;28;20196;-90
2022/01/03 05:11:43;;;;;;;5.50;5.00;;;3.00;99.90;;;;;;4992401;28;20224;-91
2022/01/03 05:14:12;;;;;;;5.30;4.90;;;2.90;99.90;;;;;;4994033;28;20201;-91
2022/01/03 05:16:39;;;;;;;5.00;4.60;;;2.90;99.90;;;;;;4994639;28;20213;-89
2022/01/03 05:19:06;;;;;;;4.90;4.55;;;2.90;99.90;;;;;;4997509;28;20611;-91
2022/01/03 05:21:33;;;;;;;4.93;4.53;;;2.90;99.90;;;;;;4995285;28;20213;-91
2022/01/03 05:24:00;;;;;;;5.05;4.55;;;2.80;99.90;;;;;;5003489;28;20208;-92
2022/01/03 05:26:27;;;;;;;5.18;4.70;;;2.80;99.90;;;;;;4993497;28;20228;-91
2022/01/03 05:28:55;;;;;;;5.32;4.88;;;2.80;99.90;;;;;;4993615;28;20197;-91
2022/01/03 05:31:23;;;;;;;5.22;4.82;;;2.80;99.90;;;;;;4996863;28;20270;-91
2022/01/03 05:33:50;;;;;;;5.05;4.55;;;2.80;99.90;;;;;;4999995;28;20605;-92
2022/01/03 05:36:17;;;;;;;4.72;4.43;;;2.90;99.90;;;;;;4998961;28;20219;-91
2022/01/03 05:38:44;;;;;;;4.78;4.38;;;3.00;99.90;;;;;;5002702;28;20197;-91
2022/01/03 05:41:11;;;;;;;4.55;4.25;;;2.90;99.90;;;;;;4998070;28;20227;-91
2022/01/03 05:43:38;;;;;;;5.05;4.65;;;2.90;99.90;;;;;;4999207;28;20201;-90
2022/01/03 05:46:06;;;;;;;4.53;4.22;;;2.90;99.90;;;;;;5012897;28;20209;-91
2022/01/03 05:48:34;;;;;;;4.40;4.00;;;2.80;99.90;;;;;;4994700;28;20200;-91
2022/01/03 05:51:02;;;;;;;4.82;4.47;;;2.80;99.90;;;;;;4986972;28;20216;-92
2022/01/03 05:53:30;;;;;;;4.75;4.38;;;2.80;99.90;;;;;;4990054;28;20204;-92
2022/01/03 05:55:57;;;;;;;4.30;4.00;;;2.80;99.90;;;;;;4984303;28;20220;-91
2022/01/03 05:58:24;;;;;;;4.93;4.63;;;2.80;99.90;;;;;;4994135;28;20216;-92
2022/01/03 06:00:52;;;;;;;4.68;4.32;;;2.90;99.90;;;;;;4995010;28;20224;-89
2022/01/03 06:03:21;;;;;;;6.32;5.82;;;2.90;99.90;;;;;;4994157;28;20402;-91
2022/01/03 06:08:34;;;;;;;6.60;6.00;;;2.90;99.90;;;;;;4993152;28;20232;-92
2022/01/03 06:11:03;;;;;;;5.80;5.30;;;2.80;99.90;;;;;;4992039;28;20216;-91
2022/01/03 06:13:30;;;;;;;5.30;4.90;;;2.70;99.90;;;;;;4996115;28;20200;-92
2022/01/03 06:15:57;;;;;;;5.50;5.10;;;2.60;99.90;;;;;;4993520;28;20332;-92
2022/01/03 06:18:25;;;;;;;5.25;4.85;;;2.60;99.90;;;;;;4995348;28;20215;-90
2022/01/03 06:20:55;;;;;;;5.38;4.97;;;2.60;99.90;;;;;;4993421;28;20244;-91
2022/01/03 06:23:22;;;;;;;5.28;4.78;;;2.70;99.90;;;;;;4999237;28;20200;-91
2022/01/03 06:25:49;;;;;;;5.18;4.78;;;2.70;99.90;;;;;;4994917;28;20221;-92
2022/01/03 06:28:17;;;;;;;5.15;4.75;;;2.70;99.90;;;;;;5003631;28;20200;-91
2022/01/03 06:30:44;;;;;;;5.03;4.53;;;2.70;99.90;;;;;;4998985;28;20228;-93
2022/01/03 06:33:12;;;;;;;5.57;5.18;;;2.70;99.90;;;;;;4999549;28;20208;-91
2022/01/03 06:35:39;;;;;;;5.32;4.93;;;2.60;99.90;;;;;;4999245;28;20225;-91
2022/01/03 06:38:08;;;;;;;5.05;4.55;;;2.60;99.90;;;;;;4992048;28;20205;-91
2022/01/03 06:40:35;;;;;;;5.55;5.05;;;2.50;99.90;;;;;;4992761;28;20583;-92
2022/01/03 06:43:02;;;;;;;5.50;5.10;;;2.50;99.90;;;;;;4991894;28;20222;-91
2022/01/03 06:45:30;;;;;;;5.10;4.70;;;2.40;99.90;;;;;;4989690;28;20220;-93
2022/01/03 06:47:57;;;;;;;5.20;4.80;;;2.40;99.90;;;;;;4995937;28;20220;-91
2022/01/03 06:50:25;;;;;;;4.75;4.45;;;2.40;99.90;;;;;;4998965;28;20228;-92
2022/01/03 06:52:52;;;;;;;5.70;5.25;;;2.50;99.90;;;;;;5004563;28;20204;-92
2022/01/03 06:55:21;;;;;;;4.35;3.95;;;2.50;99.90;;;;;;4994759;28;20224;-93
2022/01/03 06:57:48;;;;;;;5.40;5.00;;;2.50;99.90;;;;;;4995498;28;20221;-92
2022/01/03 07:00:16;;;;;;;4.50;4.20;;;2.60;99.90;;;;;;4990358;28;20224;-93
2022/01/03 07:02:43;;;;;;;4.95;4.65;;;2.60;99.90;;;;;;4998442;28;20676;-93
2022/01/03 07:05:12;;;;;;;4.57;4.28;;;2.70;99.90;;;;;;4993175;28;20205;-92
2022/01/03 07:07:40;;;;;;;4.78;4.38;;;2.60;99.90;;;;;;4992728;28;20201;-92
2022/01/03 07:10:09;;;;;;;5.25;4.85;;;2.70;99.90;;;;;;5000875;28;20423;-91
2022/01/03 07:12:38;;;;;;;5.53;5.00;;;2.70;99.90;;;;;;5005808;28;20195;-92
2022/01/03 07:20:36;;;;;;;5.45;5.00;;;2.70;99.90;;;;;;4993910;28;20633;-91
2022/01/03 07:23:04;;;;;;;5.65;5.15;;;2.70;99.90;;;;;;4996281;28;20224;-92
2022/01/03 07:25:31;;;;;;;6.00;5.50;;;2.80;99.90;;;;;;5000493;28;20303;-92
2022/01/03 07:28:00;;;;;;;5.90;5.47;;;2.80;99.90;;;;;;4990778;28;20220;-93
2022/01/03 07:30:27;;;;;;;5.70;5.20;;;2.80;99.90;;;;;;4990594;28;20228;-91
2022/01/03 07:32:54;;;;;;;5.55;5.15;;;2.90;99.90;;;;;;4991419;28;20193;-92
2022/01/03 07:35:23;;;;;;;5.47;5.07;;;2.90;99.90;;;;;;4990960;28;20239;-92
2022/01/03 07:37:51;;;;;;;5.90;5.38;;;3.00;99.90;;;;;;4997842;28;20225;-92
2022/01/03 07:40:18;;;;;;;5.53;5.13;;;3.10;99.90;;;;;;4992328;28;20581;-92
2022/01/03 07:42:45;;;;;;;5.30;4.90;;;3.10;99.90;;;;;;4996223;28;20291;-91
2022/01/03 07:45:14;;;;;;;5.53;5.13;;;3.20;99.90;;;;;;4994794;28;20205;-92
2022/01/03 07:47:42;;;;;;;6.20;5.63;;;3.20;99.90;;;;;;4990636;28;20201;-92
2022/01/03 07:50:11;;;;;;;5.70;5.20;;;3.20;99.90;;;;;;4994646;28;20224;-91
2022/01/03 07:52:38;;;;;;;5.60;5.07;;;3.10;99.90;;;;;;4993033;28;20192;-91
2022/01/03 07:55:08;;;;;;;5.72;5.32;;;3.10;99.90;;;;;;5006246;28;20204;-91
2022/01/03 07:57:35;;;;;;;5.68;5.28;;;3.00;99.90;;;;;;4991538;28;20759;-92
2022/01/03 08:00:04;;;;;;;7.28;6.57;;;3.00;99.90;;;;;;4989741;28;20197;-92
2022/01/03 08:02:32;;;;;;;7.10;6.50;;;3.00;99.90;;;;;;4994871;28;20232;-92
2022/01/03 08:05:00;;;;;;;7.47;6.78;;;2.80;99.90;;;;;;5000416;28;20209;-91
2022/01/03 08:07:27;;;;;;;7.38;6.68;;;2.80;99.90;;;;;;4995443;28;20247;-90
2022/01/03 08:09:54;;;;;;;7.13;6.53;;;2.80;99.90;;;;;;4991424;28;20221;-91
2022/01/03 08:12:21;;;;;;;7.20;6.60;;;2.90;99.90;;;;;;4998088;28;20216;-92
2022/01/03 08:14:49;;;;;;;5.93;5.45;;;2.90;99.90;;;;;;4995844;28;20208;-92
2022/01/03 08:17:16;;;;;;;6.43;5.82;;;3.00;99.90;;;;;;4996487;28;20244;-91
2022/01/03 08:19:45;;;;;;;6.68;6.07;;;3.10;99.90;;;;;;5001323;28;20598;-89
2022/01/03 08:22:12;;;;;;;7.25;6.13;;;3.20;99.90;;;;;;4996343;28;20224;-91
2022/01/03 08:24:39;;;;;;;7.00;6.40;;;3.30;99.90;;;;;;5003110;28;20200;-90
2022/01/03 08:27:07;;;;;;;6.90;6.30;;;3.40;99.90;;;;;;5004373;28;20225;-91
2022/01/03 08:29:35;;;;;;;7.03;6.32;;;3.70;99.90;;;;;;4997627;28;20339;-91
2022/01/03 08:32:02;;;;;;;7.03;6.43;;;4.40;99.90;;;;;;4996724;28;20225;-91
2022/01/03 08:34:29;;;;;;;6.90;6.30;;;5.10;99.90;;;;;;4996416;28;20216;-91
2022/01/03 08:36:59;;;;;;;6.78;5.93;;;5.50;99.90;;;;;;5010153;28;20232;-92
2022/01/03 08:39:27;;;;;;;6.43;5.82;;;5.90;99.90;;;;;;4995376;28;20236;-92
2022/01/03 08:41:54;;;;;;;7.22;6.10;;;6.40;99.90;;;;;;4997036;28;20228;-93
2022/01/03 08:44:21;;;;;;;6.07;5.53;;;6.90;99.90;;;;;;4998474;28;20630;-93
2022/01/03 08:46:50;;;;;;;5.80;5.30;;;7.40;99.90;;;;;;5002112;28;20224;-92
2022/01/03 08:49:18;;;;;;;5.88;5.38;;;7.90;99.90;;;;;;4990933;28;20225;-91
2022/01/03 08:51:46;;;;;;;5.90;5.40;;;8.00;99.90;;;;;;4997536;28;20244;-92
2022/01/03 08:54:14;;;;;;;5.57;5.18;;;7.60;99.90;;;;;;4995446;28;20215;-91
2022/01/03 08:56:42;;;;;;;6.47;5.88;;;7.10;99.90;;;;;;4993253;28;20223;-91
2022/01/03 08:59:09;;;;;;;7.38;6.65;;;6.80;99.90;;;;;;4994276;28;20213;-91
2022/01/03 09:01:36;;;;;;;7.05;6.45;;;6.50;99.90;;;;;;4991706;28;20228;-91
2022/01/03 09:04:03;;;;;;;6.30;5.78;;;6.40;99.90;;;;;;4989107;28;20329;-90
2022/01/03 09:06:30;;;;;;;6.75;6.15;;;6.30;99.90;;;;;;4995544;28;20267;-91
2022/01/03 09:08:58;;;;;;;5.78;5.28;;;6.10;99.90;;;;;;4997417;28;20192;-91
2022/01/03 09:11:27;;;;;;;5.57;5.07;;;5.90;99.90;;;;;;4991771;28;20224;-91
2022/01/03 09:13:54;;;;;;;6.55;5.95;;;5.90;99.90;;;;;;4978864;28;20220;-91
2022/01/03 09:16:21;;;;;;;7.10;6.50;;;5.90;99.90;;;;;;4993679;28;20220;-91
2022/01/03 09:18:48;;;;;;;6.38;5.85;;;6.20;99.90;;;;;;5011785;28;20232;-91
2022/01/03 09:21:16;;;;;;;6.15;5.55;;;6.70;99.90;;;;;;4995790;28;20761;-91
2022/01/03 09:23:48;;;;;;;6.50;5.90;;;7.30;99.90;;;;;;4987683;28;20213;-79
2022/01/03 09:29:01;;;;;;;7.32;6.63;;;8.60;99.90;;;;;;4984190;28;21021;-88
2022/01/03 09:31:30;;;;;;;8.02;7.22;;;10.20;99.90;;;;;;4987033;28;20221;-91
2022/01/03 09:34:00;;;;;;;8.65;7.75;;;11.10;99.90;;;;;;4986497;28;20193;-89
2022/01/03 09:36:29;;;;;;;7.05;6.35;;;10.90;99.90;;;;;;4984760;28;20328;-90
2022/01/03 09:38:56;;;;;;;6.38;5.82;;;10.90;99.90;;;;;;4986793;28;20212;-88
2022/01/03 09:41:26;;;;;;;6.53;5.88;;;11.90;99.90;;;;;;4987603;28;20232;-90
2022/01/03 09:43:56;;;;;;;5.63;5.15;;;12.80;99.90;;;;;;4999279;28;20208;-90
2022/01/03 09:46:26;;;;;;;6.65;6.05;;;14.10;99.90;;;;;;4990549;28;20691;-91
2022/01/03 09:48:54;;;;;;;7.03;6.43;;;14.80;99.90;;;;;;4989772;28;20205;-90
2022/01/03 09:51:23;;;;;;;7.50;6.75;;;13.80;99.90;;;;;;4987341;28;20217;-90
2022/01/03 09:53:52;;;;;;;7.40;6.70;;;12.40;99.90;;;;;;4988390;28;20201;-92
2022/01/03 09:56:20;;;;;;;7.90;7.05;;;11.40;99.90;;;;;;4987760;28;20283;-90
2022/01/03 09:58:47;;;;;;;7.05;6.35;;;11.10;99.90;;;;;;4988440;28;21260;-87
2022/01/03 10:01:15;;;;;;;8.10;7.32;;;11.50;99.90;;;;;;4980208;28;20241;-86
2022/01/03 10:03:47;;;;;;;6.97;5.90;;;12.20;99.90;;;;;;4981434;28;20233;-87
2022/01/03 10:06:19;;;;;;;7.88;6.60;;;11.80;99.90;;;;;;4987284;28;20225;-86
2022/01/03 10:08:47;;;;;;;7.03;6.43;;;11.50;99.90;;;;;;4988434;28;20253;-86
2022/01/03 10:11:15;;;;;;;7.00;6.40;;;11.30;99.90;;;;;;4980007;28;20229;-86
2022/01/03 10:13:43;;;;;;;6.45;5.85;;;10.50;99.90;;;;;;4980385;28;20198;-85
2022/01/03 10:16:10;;;;;;;7.35;6.65;;;10.30;99.90;;;;;;4983437;28;20655;-85
2022/01/03 10:18:37;;;;;;;7.43;6.72;;;10.40;99.90;;;;;;4983172;28;20209;-85
2022/01/03 10:21:07;;;;;;;7.82;6.57;;;10.50;99.90;;;;;;4983647;28;20232;-85
2022/01/03 10:23:35;;;;;;;8.07;6.32;;;10.50;99.90;;;;;;4981295;28;20221;-85
2022/01/03 10:26:16;;;;;;;6.95;6.25;;;10.30;99.90;;;;;;4986192;28;20224;-87
2022/01/03 10:28:43;;;;;;;6.70;6.00;;;10.50;99.90;;;;;;4985793;28;20184;-89
2022/01/03 10:31:19;;;;;;;6.82;6.13;;;10.20;99.90;;;;;;4983273;28;20236;-89
2022/01/03 10:33:47;;;;;;;7.35;6.30;;;9.60;99.90;;;;;;4979395;28;20197;-90
2022/01/03 10:36:29;;;;;;;7.97;7.18;;;9.20;99.90;;;;;;4989860;28;20225;-88
2022/01/03 10:38:58;;;;;;;7.68;6.88;;;9.20;99.90;;;;;;4984596;28;20662;-87
2022/01/03 10:41:26;;;;;;;9.82;7.90;;;9.00;99.90;;;;;;4983539;28;20236;-87
2022/01/03 10:43:55;;;;;;;6.93;6.32;;;8.80;99.90;;;;;;4994505;28;20224;-88
2022/01/03 10:46:24;;;;;;;6.75;6.15;;;8.70;99.90;;;;;;4982280;28;20221;-87
2022/01/03 10:48:52;;;;;;;7.18;6.55;;;9.00;99.90;;;;;;4977599;28;20282;-86
2022/01/03 10:51:24;;;;;;;7.88;6.93;;;9.20;99.90;;;;;;4989109;28;20221;-88
2022/01/03 10:53:55;;;;;;;7.03;6.32;;;9.50;99.90;;;;;;4986291;28;20207;-88
2022/01/03 10:56:29;;;;;;;7.97;7.25;;;9.70;99.90;;;;;;4985356;28;20224;-90
2022/01/03 10:58:57;;;;;;;7.50;6.90;;;10.00;99.90;;;;;;4981308;28;20268;-89
2022/01/03 11:01:26;;;;;;;7.50;6.78;;;10.40;99.90;;;;;;4986859;28;20330;-88
2022/01/03 11:03:55;;;;;;;7.43;6.72;;;9.90;99.90;;;;;;4979725;28;20229;-89
2022/01/03 11:06:25;;;;;;;8.40;6.70;;;9.50;99.90;;;;;;4985121;28;20220;-87
2022/01/03 11:11:41;;;;;;;7.40;6.53;;;9.30;99.90;;;;;;4979599;28;20224;-89
2022/01/03 11:14:10;;;;;;;7.00;6.40;;;9.60;99.90;;;;;;4985709;28;20757;-85
2022/01/03 11:16:40;;;;;;;8.25;7.07;;;9.60;99.90;;;;;;4980440;28;20732;-87
2022/01/03 11:19:07;;;;;;;8.00;7.15;;;9.40;99.90;;;;;;4980685;28;20372;-87
2022/01/03 11:21:37;;;;;;;7.90;7.10;;;9.40;99.90;;;;;;4978148;28;20999;-87
2022/01/03 11:24:09;;;;;;;8.98;8.07;;;9.60;99.90;;;;;;4983287;28;20213;-89
2022/01/03 11:26:40;;;;;;;8.95;8.05;;;9.70;99.90;;;;;;4984278;28;20220;-90
2022/01/03 11:29:09;;;;;;;10.13;8.35;;;9.60;99.90;;;;;;4985909;28;20267;-90
2022/01/03 11:31:39;;;;;;;9.27;8.38;;;9.40;99.90;;;;;;4984318;28;20217;-90
2022/01/03 11:34:07;;;;;;;9.63;8.38;;;9.20;99.90;;;;;;4986578;28;20228;-90
2022/01/03 11:36:36;;;;;;;8.93;7.95;;;9.10;99.90;;;;;;4984307;28;20225;-90
2022/01/03 11:39:08;;;;;;;9.43;8.43;;;9.20;99.90;;;;;;4984806;28;20209;-90
2022/01/03 11:41:36;;;;;;;8.30;7.50;;;9.40;99.90;;;;;;4990866;28;20223;-91
2022/01/03 11:44:04;;;;;;;8.18;7.38;;;9.50;99.90;;;;;;4982407;28;21227;-91
2022/01/03 11:46:32;;;;;;;10.25;8.38;;;9.70;99.90;;;;;;4996435;28;20224;-92
2022/01/03 11:49:00;;;;;;;9.55;7.82;;;10.10;99.90;;;;;;4993018;28;20203;-91
2022/01/03 11:51:30;;;;;;;8.52;6.95;;;10.40;99.90;;;;;;4988538;28;20231;-91
2022/01/03 11:53:58;;;;;;;8.65;7.75;;;10.60;99.90;;;;;;4986317;28;20228;-92
2022/01/03 11:56:29;;;;;;;9.00;7.75;;;10.70;99.90;;;;;;4986727;28;20229;-92
2022/01/03 11:59:19;;;;;;;8.43;7.72;;;10.60;99.90;;;;;;4988697;28;20291;-91
2022/01/03 12:04:35;;;;;;;8.20;7.40;;;10.00;99.90;;;;;;4988818;28;20236;-91
2022/01/03 12:07:06;;;;;;;7.80;7.00;;;9.70;99.90;;;;;;4986949;28;20225;-90
2022/01/03 12:09:34;;;;;;;9.23;7.47;;;9.80;99.90;;;;;;4993293;28;20244;-92
2022/01/03 12:12:03;;;;;;;7.60;6.90;;;9.80;99.90;;;;;;4991480;28;20232;-93
2022/01/03 12:14:41;;;;;;;8.52;7.32;;;9.40;99.90;;;;;;4991556;28;20216;-93
2022/01/03 12:17:11;;;;;;;8.35;7.55;;;9.50;99.90;;;;;;4989230;28;20232;-92
2022/01/03 12:19:42;;;;;;;8.27;7.50;;;9.60;99.90;;;;;;4993085;28;20200;-92
2022/01/03 12:22:15;;;;;;;8.60;7.80;;;9.70;99.90;;;;;;4991066;28;20307;-92
2022/01/03 12:25:02;;;;;;;8.88;8.02;;;9.60;99.90;;;;;;4991253;28;20225;-93
2022/01/03 12:27:41;;;;;;;8.82;8.02;;;9.30;99.90;;;;;;4988881;28;20228;-92
2022/01/03 12:30:14;;;;;;;9.20;8.30;;;9.00;99.90;;;;;;4994636;28;20208;-93
2022/01/03 12:32:43;;;;;;;8.27;7.57;;;8.70;99.90;;;;;;4990745;28;20228;-92
2022/01/03 12:35:23;;;;;;;8.57;7.80;;;8.50;99.90;;;;;;4990872;28;20710;-93
2022/01/03 12:38:29;;;;;;;7.57;6.88;;;8.40;99.90;;;;;;4991464;28;20240;-92
2022/01/03 12:41:02;;;;;;;7.25;6.65;;;8.30;99.90;;;;;;4983791;28;20204;-92
2022/01/03 12:43:50;;;;;;;7.57;6.60;;;8.10;99.90;;;;;;4988402;28;20244;-92
2022/01/03 12:46:20;;;;;;;9.65;8.60;;;7.90;99.90;;;;;;4990540;28;20193;-93
2022/01/03 12:48:47;;;;;;;8.27;7.35;;;7.50;99.90;;;;;;4993156;28;20842;-92
2022/01/03 12:51:17;;;;;;;10.93;9.80;;;7.10;99.90;;;;;;4989757;28;20215;-91
2022/01/03 12:53:55;;;;;;;8.80;8.00;;;7.00;99.90;;;;;;5002041;28;20267;-90
2022/01/03 12:56:31;;;;;;;9.15;8.30;;;7.00;99.90;;;;;;4991874;28;20204;-88
2022/01/03 12:59:13;;;;;;;9.10;8.18;;;7.40;99.90;;;;;;4991424;28;20264;-89
2022/01/03 13:01:41;;;;;;;8.23;7.43;;;7.70;99.90;;;;;;4991133;28;20379;-91
2022/01/03 13:04:25;;;;;;;9.70;8.73;;;8.00;99.90;;;;;;4987902;28;20240;-90
2022/01/03 13:07:01;;;;;;;8.50;7.55;;;8.30;99.90;;;;;;4989924;28;20221;-90
2022/01/03 13:09:28;;;;;;;9.68;8.48;;;8.50;99.90;;;;;;4987322;28;20213;-91
2022/01/03 13:11:59;;;;;;;7.78;6.97;;;8.50;99.90;;;;;;4996844;28;20224;-90
2022/01/03 13:14:28;;;;;;;7.20;6.40;;;8.40;99.90;;;;;;4990152;28;20203;-92
2022/01/03 13:16:56;;;;;;;6.22;5.63;;;8.30;99.90;;;;;;4986489;28;20243;-90
2022/01/03 13:19:26;;;;;;;5.35;4.85;;;8.10;99.90;;;;;;4986600;28;20197;-94
2022/01/03 13:21:55;;;;;;;7.70;6.20;;;8.10;99.90;;;;;;4990824;28;21976;-91
2022/01/03 13:24:24;;;;;;;8.80;7.93;;;8.30;99.90;;;;;;4986603;28;20823;-91